Time;durP1;ratioP1;P1;durP2;ratioP2;P2;SDS_P1;SDS_P2;PMS_P1;PMS_P2;Temp;Humidity;BMP_temperature;BMP_pressure;BME280_temperature;BME280_humidity;BME280_pressure;Samples;Min_cycle;Max_cycle;Signal;HPM_P1;HPM_P2
2021/03/30 00:00:11;;;;;;;23.00;14.90;;;11.20;98.30;;;;;;4148217;28;20470;-81
2021/03/30 00:02:13;;;;;;;27.67;15.43;;;11.10;98.30;;;;;;4149949;28;20895;-81
2021/03/30 00:04:15;;;;;;;31.10;16.07;;;11.10;98.30;;;;;;4149066;28;20577;-81
2021/03/30 00:06:17;;;;;;;24.63;15.07;;;11.10;98.30;;;;;;4146760;28;20482;-81
2021/03/30 00:08:20;;;;;;;32.43;15.40;;;11.10;98.30;;;;;;4147759;28;20500;-81
2021/03/30 00:10:27;;;;;;;24.10;15.13;;;11.10;98.30;;;;;;4147214;28;20498;-82
2021/03/30 00:12:29;;;;;;;26.30;16.33;;;11.10;98.30;;;;;;4147384;28;20497;-81
2021/03/30 00:14:31;;;;;;;23.03;14.80;;;11.10;98.30;;;;;;4146331;28;20495;-81
2021/03/30 00:16:34;;;;;;;24.23;14.37;;;11.10;98.30;;;;;;4143169;28;20499;-81
2021/03/30 00:18:36;;;;;;;28.00;15.70;;;11.10;98.30;;;;;;4138554;28;20570;-80
2021/03/30 00:20:38;;;;;;;26.63;15.30;;;11.10;98.30;;;;;;4147073;28;20490;-80
2021/03/30 00:22:40;;;;;;;24.00;13.70;;;11.10;98.30;;;;;;4144218;28;20491;-82
2021/03/30 00:24:43;;;;;;;25.10;15.63;;;11.10;98.30;;;;;;4146315;28;20498;-80
2021/03/30 00:26:45;;;;;;;24.23;15.90;;;11.10;98.30;;;;;;4146414;28;20514;-80
2021/03/30 00:28:48;;;;;;;30.47;15.60;;;11.10;98.30;;;;;;4143581;28;20494;-81
2021/03/30 00:30:51;;;;;;;26.43;16.90;;;11.10;98.30;;;;;;4144115;28;20522;-80
2021/03/30 00:32:53;;;;;;;24.07;14.67;;;11.10;98.30;;;;;;4147670;28;20591;-80
2021/03/30 00:34:55;;;;;;;25.20;15.13;;;11.10;98.30;;;;;;4142408;28;20489;-80
2021/03/30 00:36:56;;;;;;;25.27;15.27;;;11.10;98.30;;;;;;4148021;28;20529;-80
2021/03/30 00:38:58;;;;;;;25.93;15.17;;;11.00;98.30;;;;;;4146071;28;21048;-80
2021/03/30 00:41:01;;;;;;;26.47;14.03;;;11.00;98.30;;;;;;4147806;28;20482;-80
2021/03/30 00:43:03;;;;;;;24.90;13.17;;;11.00;98.30;;;;;;4149145;28;20481;-80
2021/03/30 00:45:07;;;;;;;23.13;14.53;;;11.10;98.30;;;;;;4144340;28;20484;-81
2021/03/30 00:47:08;;;;;;;26.73;13.23;;;11.10;98.30;;;;;;4144391;28;20487;-81
2021/03/30 00:49:11;;;;;;;20.73;12.80;;;11.00;98.30;;;;;;4146876;28;20537;-81
2021/03/30 00:51:13;;;;;;;27.07;14.17;;;11.10;98.30;;;;;;4143954;28;20486;-80
2021/03/30 00:53:15;;;;;;;28.20;13.13;;;11.10;98.30;;;;;;4145946;28;20498;-81
2021/03/30 00:55:17;;;;;;;25.20;13.60;;;11.10;98.30;;;;;;4146631;28;20524;-81
2021/03/30 00:57:20;;;;;;;17.93;12.47;;;11.00;98.30;;;;;;4147372;28;20497;-81
2021/03/30 00:59:23;;;;;;;20.13;12.50;;;11.00;98.30;;;;;;4149917;28;20494;-81
2021/03/30 01:01:25;;;;;;;21.20;11.50;;;11.00;98.30;;;;;;4147002;28;20490;-81
2021/03/30 01:03:26;;;;;;;18.33;12.70;;;11.10;98.30;;;;;;4148901;28;20503;-80
2021/03/30 01:05:28;;;;;;;29.20;13.43;;;11.10;98.30;;;;;;4146341;28;20490;-81
2021/03/30 01:07:30;;;;;;;19.83;12.13;;;11.10;98.30;;;;;;4144351;28;20486;-80
2021/03/30 01:09:38;;;;;;;22.40;12.73;;;11.10;98.30;;;;;;4148506;28;20494;-80
2021/03/30 01:11:49;;;;;;;21.53;12.70;;;11.10;98.30;;;;;;4151016;28;20485;-80
2021/03/30 01:14:01;;;;;;;18.30;11.03;;;11.10;98.30;;;;;;4146210;28;20494;-80
2021/03/30 01:16:08;;;;;;;15.70;10.33;;;11.00;98.30;;;;;;4148106;28;20499;-80
2021/03/30 01:18:15;;;;;;;15.80;10.30;;;11.00;98.30;;;;;;4145989;28;20518;-80
2021/03/30 01:20:52;;;;;;;24.90;11.43;;;11.00;98.30;;;;;;4137397;28;20491;-80
2021/03/30 01:23:11;;;;;;;20.10;12.20;;;11.00;98.30;;;;;;4146311;28;20491;-81
2021/03/30 01:25:13;;;;;;;17.20;9.80;;;11.00;98.30;;;;;;4146861;28;20552;-81
2021/03/30 01:27:27;;;;;;;17.83;10.77;;;11.00;98.30;;;;;;4146468;28;20504;-81
2021/03/30 01:29:39;;;;;;;17.60;9.97;;;11.00;98.30;;;;;;4146825;28;20497;-80
2021/03/30 01:31:45;;;;;;;21.33;9.67;;;11.00;98.30;;;;;;4145404;28;21317;-81
2021/03/30 01:33:49;;;;;;;19.67;10.93;;;11.00;98.30;;;;;;4141278;28;20494;-80
2021/03/30 01:35:53;;;;;;;18.83;9.40;;;11.00;98.30;;;;;;4152518;28;20584;-80
2021/03/30 01:37:57;;;;;;;17.60;10.33;;;11.00;98.30;;;;;;4151499;28;20858;-80
2021/03/30 01:40:00;;;;;;;15.70;9.87;;;11.00;98.30;;;;;;4148700;28;20482;-80
2021/03/30 01:42:03;;;;;;;20.93;10.50;;;10.90;98.30;;;;;;4148604;28;20477;-80
2021/03/30 01:44:07;;;;;;;16.30;9.30;;;10.90;98.30;;;;;;4149260;28;20489;-80
2021/03/30 01:46:11;;;;;;;17.37;9.53;;;10.90;98.30;;;;;;4147175;28;20485;-80
2021/03/30 01:48:13;;;;;;;19.00;10.03;;;10.90;98.30;;;;;;4147755;28;20858;-80
2021/03/30 01:50:16;;;;;;;14.27;9.00;;;10.90;98.30;;;;;;4149014;28;20487;-80
2021/03/30 01:52:19;;;;;;;19.33;10.20;;;10.90;98.30;;;;;;4144407;28;20488;-80
2021/03/30 01:54:22;;;;;;;18.70;10.03;;;10.90;98.30;;;;;;4148863;28;20485;-80
2021/03/30 01:56:25;;;;;;;24.20;9.70;;;10.90;98.30;;;;;;4145605;28;20510;-80
2021/03/30 01:58:29;;;;;;;17.00;9.30;;;10.90;98.30;;;;;;4145253;28;20491;-80
2021/03/30 02:00:33;;;;;;;14.23;9.50;;;10.90;98.30;;;;;;4143677;28;20486;-80
2021/03/30 02:02:40;;;;;;;17.23;9.30;;;10.90;98.30;;;;;;4147729;28;20483;-80
2021/03/30 02:04:43;;;;;;;15.40;9.63;;;10.80;98.30;;;;;;4147978;28;20946;-80
2021/03/30 02:06:47;;;;;;;17.03;10.50;;;10.80;98.30;;;;;;4150711;28;20486;-81
2021/03/30 02:08:50;;;;;;;19.53;9.30;;;10.80;98.30;;;;;;4149038;28;20492;-80
2021/03/30 02:10:55;;;;;;;17.73;10.10;;;10.80;98.30;;;;;;4145646;28;20498;-80
2021/03/30 02:12:58;;;;;;;15.10;8.93;;;10.80;98.30;;;;;;4145293;28;21353;-80
2021/03/30 02:15:02;;;;;;;24.00;11.87;;;10.80;98.30;;;;;;4149807;28;20902;-80
2021/03/30 02:17:07;;;;;;;16.00;9.70;;;10.80;98.30;;;;;;4144333;28;20530;-81
2021/03/30 02:19:15;;;;;;;14.03;9.27;;;10.70;98.30;;;;;;4145295;28;20494;-80
2021/03/30 02:21:22;;;;;;;19.57;9.90;;;10.70;98.30;;;;;;4150224;28;20494;-80
2021/03/30 02:23:26;;;;;;;15.70;8.63;;;10.70;98.30;;;;;;4148709;28;20490;-80
2021/03/30 02:25:30;;;;;;;16.30;8.90;;;10.70;98.30;;;;;;4150871;28;20517;-81
2021/03/30 02:27:37;;;;;;;14.77;10.20;;;10.70;98.30;;;;;;4147327;28;20563;-80
2021/03/30 02:29:43;;;;;;;20.20;10.00;;;10.70;98.30;;;;;;4148262;28;21023;-80
2021/03/30 02:31:47;;;;;;;17.83;9.40;;;10.70;98.30;;;;;;4146829;28;20987;-81
2021/03/30 02:33:52;;;;;;;18.30;9.17;;;10.70;98.30;;;;;;4147368;28;20479;-81
2021/03/30 02:35:56;;;;;;;15.17;9.83;;;10.60;98.30;;;;;;4147960;28;20517;-81
2021/03/30 02:38:01;;;;;;;13.73;9.00;;;10.60;98.30;;;;;;4148775;28;20583;-81
2021/03/30 02:40:06;;;;;;;16.00;9.20;;;10.60;98.30;;;;;;4146875;28;20588;-81
2021/03/30 02:42:09;;;;;;;18.57;10.00;;;10.60;98.30;;;;;;4150402;28;21169;-79
2021/03/30 02:44:13;;;;;;;19.97;10.13;;;10.60;98.30;;;;;;4148006;28;20531;-79
2021/03/30 02:46:17;;;;;;;18.10;10.07;;;10.60;98.30;;;;;;4145505;28;20552;-80
2021/03/30 02:48:20;;;;;;;17.03;9.73;;;10.50;98.30;;;;;;4143641;28;20462;-80
2021/03/30 02:50:23;;;;;;;17.47;10.17;;;10.50;98.30;;;;;;4145482;28;20513;-79
2021/03/30 02:52:26;;;;;;;23.87;10.27;;;10.60;98.30;;;;;;4145316;28;20486;-79
2021/03/30 02:54:28;;;;;;;17.03;10.57;;;10.50;98.30;;;;;;4143730;28;20483;-79
2021/03/30 02:56:31;;;;;;;21.10;9.80;;;10.50;98.30;;;;;;4146379;28;20498;-80
2021/03/30 02:58:34;;;;;;;15.27;9.20;;;10.50;98.30;;;;;;4148381;28;20917;-80
2021/03/30 03:00:39;;;;;;;15.87;9.57;;;10.50;98.30;;;;;;4145765;28;21079;-80
2021/03/30 03:02:43;;;;;;;20.03;8.87;;;10.50;98.30;;;;;;4146118;28;20906;-80
2021/03/30 03:04:48;;;;;;;22.20;10.37;;;10.50;98.30;;;;;;4145421;28;20491;-79
2021/03/30 03:06:50;;;;;;;21.67;9.87;;;10.50;98.30;;;;;;4143844;28;20851;-80
2021/03/30 03:08:53;;;;;;;17.17;9.87;;;10.50;98.30;;;;;;4144290;28;20490;-80
2021/03/30 03:10:57;;;;;;;21.60;9.83;;;10.50;98.30;;;;;;4145494;28;21076;-80
2021/03/30 03:13:01;;;;;;;20.70;9.77;;;10.50;98.30;;;;;;4146757;28;20616;-80
2021/03/30 03:15:06;;;;;;;18.30;9.73;;;10.50;98.30;;;;;;4144191;28;20505;-80
2021/03/30 03:17:09;;;;;;;14.93;8.77;;;10.50;98.30;;;;;;4142326;28;20490;-80
2021/03/30 03:19:13;;;;;;;11.90;8.60;;;10.50;98.30;;;;;;4142594;28;20490;-80
2021/03/30 03:21:17;;;;;;;19.13;10.17;;;10.50;98.30;;;;;;4147178;28;20490;-80
2021/03/30 03:23:19;;;;;;;16.70;8.40;;;10.40;98.30;;;;;;4143564;28;20566;-80
2021/03/30 03:25:23;;;;;;;16.70;9.20;;;10.40;98.30;;;;;;4147066;28;21173;-80
2021/03/30 03:27:25;;;;;;;19.57;9.20;;;10.40;98.30;;;;;;4142631;28;20481;-80
2021/03/30 03:29:27;;;;;;;22.30;8.70;;;10.40;98.30;;;;;;4146577;28;20617;-80
2021/03/30 03:31:29;;;;;;;15.20;9.00;;;10.40;98.30;;;;;;4139915;28;20482;-80
2021/03/30 03:33:32;;;;;;;13.83;9.33;;;10.40;98.30;;;;;;4149115;28;20486;-80
2021/03/30 03:35:34;;;;;;;14.50;9.00;;;10.40;98.30;;;;;;4139799;28;20974;-80
2021/03/30 03:37:41;;;;;;;18.90;9.80;;;10.40;98.30;;;;;;4143304;28;20486;-80
2021/03/30 03:39:43;;;;;;;14.33;8.20;;;10.40;98.30;;;;;;4145680;28;20490;-80
2021/03/30 03:41:47;;;;;;;14.03;8.13;;;10.40;98.30;;;;;;4144283;28;20537;-80
2021/03/30 03:43:49;;;;;;;19.77;9.00;;;10.40;98.30;;;;;;4144139;28;20493;-81
2021/03/30 03:45:51;;;;;;;12.23;8.50;;;10.30;98.30;;;;;;4146829;28;20577;-81
2021/03/30 03:47:53;;;;;;;17.80;9.00;;;10.40;98.30;;;;;;4141904;28;20525;-80
2021/03/30 03:49:55;;;;;;;12.83;8.80;;;10.30;98.30;;;;;;4142505;28;20464;-80
2021/03/30 03:52:05;;;;;;;15.13;8.27;;;10.30;98.30;;;;;;4144727;28;20528;-80
2021/03/30 03:54:12;;;;;;;16.60;8.33;;;10.30;98.30;;;;;;4145577;28;20589;-80
2021/03/30 03:56:16;;;;;;;14.97;8.97;;;10.30;98.30;;;;;;4144414;28;20480;-80
2021/03/30 03:58:23;;;;;;;13.37;8.27;;;10.30;98.30;;;;;;4144073;28;21165;-80
2021/03/30 04:00:27;;;;;;;22.70;9.57;;;10.30;98.30;;;;;;4144807;28;20478;-80
2021/03/30 04:02:35;;;;;;;15.30;10.17;;;10.30;98.30;;;;;;4145977;28;20482;-80
2021/03/30 04:04:42;;;;;;;14.27;8.27;;;10.30;98.30;;;;;;4145469;28;20543;-80
2021/03/30 04:06:49;;;;;;;15.03;8.37;;;10.30;98.30;;;;;;4144082;28;20543;-80
2021/03/30 04:08:53;;;;;;;15.20;8.70;;;10.20;98.30;;;;;;4143169;28;20489;-80
2021/03/30 04:10:57;;;;;;;15.97;8.33;;;10.30;98.30;;;;;;4144176;28;20504;-80
2021/03/30 04:13:00;;;;;;;12.67;8.07;;;10.20;98.30;;;;;;4147109;28;20489;-80
2021/03/30 04:15:04;;;;;;;12.50;8.90;;;10.30;98.30;;;;;;4148391;28;20496;-80
2021/03/30 04:17:06;;;;;;;14.80;8.13;;;10.30;98.30;;;;;;4149572;28;21016;-79
2021/03/30 04:19:10;;;;;;;18.00;8.00;;;10.30;98.30;;;;;;4147348;28;20494;-80
2021/03/30 04:21:20;;;;;;;19.63;9.10;;;10.30;98.30;;;;;;4147841;28;20502;-79
2021/03/30 04:23:24;;;;;;;16.70;9.03;;;10.20;98.30;;;;;;4145709;28;20493;-80
2021/03/30 04:25:27;;;;;;;11.97;7.40;;;10.20;98.30;;;;;;4143148;28;21090;-80
2021/03/30 04:27:31;;;;;;;12.40;7.43;;;10.20;98.30;;;;;;4145506;28;20486;-80
2021/03/30 04:29:33;;;;;;;17.00;8.23;;;10.20;98.30;;;;;;4143887;28;20598;-81
2021/03/30 04:31:36;;;;;;;20.63;8.43;;;10.20;98.30;;;;;;4149221;28;20494;-81
2021/03/30 04:33:38;;;;;;;14.20;8.27;;;10.10;98.30;;;;;;4146929;28;20490;-80
2021/03/30 04:35:40;;;;;;;17.90;8.17;;;10.10;98.30;;;;;;4149865;28;20486;-81
2021/03/30 04:37:42;;;;;;;14.40;9.00;;;10.10;98.30;;;;;;4150257;28;20501;-81
2021/03/30 04:39:44;;;;;;;15.70;8.73;;;10.10;98.30;;;;;;4151108;28;20498;-81
2021/03/30 04:41:48;;;;;;;14.20;7.67;;;10.10;98.30;;;;;;4150684;28;20501;-81
2021/03/30 04:43:50;;;;;;;19.70;7.97;;;10.10;98.30;;;;;;4151187;28;20487;-81
2021/03/30 04:45:52;;;;;;;14.80;7.80;;;10.00;98.30;;;;;;4151913;28;20580;-81
2021/03/30 04:47:55;;;;;;;15.43;7.73;;;10.00;98.30;;;;;;4150773;28;20558;-81
2021/03/30 04:49:57;;;;;;;12.93;7.80;;;10.10;98.30;;;;;;4150990;28;20497;-81
2021/03/30 04:51:59;;;;;;;15.33;8.87;;;10.00;98.30;;;;;;4149542;28;20909;-81
2021/03/30 04:54:01;;;;;;;15.20;8.23;;;10.00;98.30;;;;;;4146096;28;20465;-81
2021/03/30 04:58:13;;;;;;;12.47;7.77;;;10.00;98.30;;;;;;4478655;22;20500;-80
2021/03/30 05:00:17;;;;;;;14.60;8.20;;;10.00;98.30;;;;;;4164759;28;20508;-81
2021/03/30 05:02:19;;;;;;;16.80;7.67;;;9.90;98.30;;;;;;4163900;28;20485;-80
2021/03/30 05:04:22;;;;;;;12.93;8.00;;;9.90;98.30;;;;;;4164288;28;20492;-81
2021/03/30 05:06:24;;;;;;;12.47;7.93;;;9.90;98.30;;;;;;4160466;28;20504;-81
2021/03/30 05:08:26;;;;;;;16.10;7.50;;;9.90;98.30;;;;;;4154119;28;20464;-80
2021/03/30 05:10:28;;;;;;;16.23;8.50;;;9.90;98.30;;;;;;4149251;28;20481;-80
2021/03/30 05:12:34;;;;;;;14.77;8.23;;;9.90;98.30;;;;;;4152846;28;21262;-80
2021/03/30 05:15:02;;;;;;;13.83;7.90;;;9.90;98.30;;;;;;4151755;28;20500;-81
2021/03/30 05:17:05;;;;;;;12.17;7.70;;;9.90;98.30;;;;;;4148344;28;20995;-80
2021/03/30 05:19:07;;;;;;;11.53;7.53;;;9.90;98.30;;;;;;4151043;28;20485;-81
2021/03/30 05:21:10;;;;;;;16.27;9.80;;;9.90;98.30;;;;;;4153109;28;20885;-81
2021/03/30 05:23:12;;;;;;;14.53;7.93;;;10.00;98.30;;;;;;4146841;28;20500;-80
2021/03/30 05:25:14;;;;;;;18.03;10.43;;;10.00;98.30;;;;;;4147887;28;20502;-80
2021/03/30 05:27:16;;;;;;;21.10;8.00;;;9.90;98.30;;;;;;4146473;28;20492;-81
2021/03/30 05:29:18;;;;;;;12.53;7.27;;;9.90;98.30;;;;;;4146965;28;20990;-80
2021/03/30 05:31:20;;;;;;;12.80;7.20;;;10.00;98.30;;;;;;4154527;28;20475;-80
2021/03/30 05:33:22;;;;;;;19.03;8.83;;;9.90;98.30;;;;;;4151264;28;20485;-80
2021/03/30 05:35:24;;;;;;;22.67;9.63;;;10.00;98.30;;;;;;4151623;28;20485;-81
2021/03/30 05:37:26;;;;;;;11.67;8.20;;;10.00;98.30;;;;;;4148764;28;20510;-80
2021/03/30 05:39:28;;;;;;;29.20;9.70;;;10.00;98.30;;;;;;4149979;28;20502;-80
2021/03/30 05:41:31;;;;;;;12.23;8.67;;;10.10;98.30;;;;;;4151816;28;20574;-80
2021/03/30 05:43:32;;;;;;;12.07;8.50;;;10.00;98.30;;;;;;4150454;28;20492;-80
2021/03/30 05:45:34;;;;;;;14.63;9.80;;;10.10;98.30;;;;;;4150528;28;20464;-80
2021/03/30 05:47:37;;;;;;;22.10;9.40;;;10.10;98.30;;;;;;4152015;28;20501;-80
2021/03/30 05:49:39;;;;;;;19.83;9.57;;;10.10;98.30;;;;;;4145847;28;20465;-81
2021/03/30 05:51:52;;;;;;;;;;;;;;;;;;;;;
2021/03/30 05:54:02;;;;;;;10.83;8.20;;;10.20;98.30;;;;;;4153225;28;20493;-81
2021/03/30 05:56:05;;;;;;;17.73;11.93;;;10.30;98.30;;;;;;4151746;28;20494;-81
2021/03/30 05:58:11;;;;;;;17.03;9.40;;;10.30;98.30;;;;;;4152486;28;20540;-81
2021/03/30 06:00:14;;;;;;;12.70;9.30;;;10.30;98.30;;;;;;4151869;28;20486;-81
2021/03/30 06:02:22;;;;;;;18.73;9.87;;;10.40;98.30;;;;;;4153287;28;20488;-80
2021/03/30 06:04:27;;;;;;;17.90;8.90;;;10.50;98.30;;;;;;4150559;28;20500;-81
2021/03/30 06:06:29;;;;;;;16.07;9.77;;;10.50;98.30;;;;;;4150880;28;20614;-80
2021/03/30 06:08:31;;;;;;;17.53;10.63;;;10.50;98.30;;;;;;4151150;28;20939;-80
2021/03/30 06:10:36;;;;;;;16.57;10.17;;;10.50;98.30;;;;;;4151753;28;20497;-80
2021/03/30 06:12:38;;;;;;;18.90;9.43;;;10.60;98.30;;;;;;4154515;28;20493;-80
2021/03/30 06:14:41;;;;;;;16.23;9.10;;;10.70;98.30;;;;;;4154509;28;20482;-81
2021/03/30 06:16:46;;;;;;;18.00;10.07;;;10.70;98.30;;;;;;4150104;28;20516;-82
2021/03/30 06:18:48;;;;;;;14.50;10.40;;;10.80;98.30;;;;;;4147043;28;20927;-82
2021/03/30 06:20:50;;;;;;;20.03;10.03;;;10.80;98.30;;;;;;4149123;28;21061;-82
2021/03/30 06:22:56;;;;;;;32.07;19.70;;;10.90;98.30;;;;;;4154770;28;20498;-82
2021/03/30 06:24:58;;;;;;;22.77;12.03;;;11.00;98.30;;;;;;4158015;28;20500;-82
2021/03/30 06:27:25;;;;;;;18.83;10.30;;;11.10;98.30;;;;;;4155822;28;20486;-82
2021/03/30 06:29:34;;;;;;;19.53;11.47;;;11.10;98.30;;;;;;4148360;28;20844;-82
2021/03/30 06:31:36;;;;;;;18.10;11.40;;;11.30;98.30;;;;;;4145630;28;20489;-82
2021/03/30 06:33:47;;;;;;;18.40;11.27;;;11.30;98.30;;;;;;4146326;28;20765;-82
2021/03/30 06:35:49;;;;;;;15.70;10.10;;;11.40;98.30;;;;;;4143551;28;20847;-83
2021/03/30 06:37:51;;;;;;;19.03;12.30;;;11.40;98.30;;;;;;4150794;28;20517;-82
2021/03/30 06:39:54;;;;;;;19.40;11.20;;;11.40;98.30;;;;;;4147661;28;20533;-83
2021/03/30 06:42:01;;;;;;;19.80;11.27;;;11.50;98.30;;;;;;4146793;28;20850;-82
2021/03/30 06:44:26;;;;;;;22.80;11.90;;;11.60;98.30;;;;;;4142073;28;20498;-83
2021/03/30 06:46:29;;;;;;;17.83;11.10;;;11.60;98.30;;;;;;4139576;28;20495;-81
2021/03/30 06:48:49;;;;;;;15.70;10.60;;;11.70;98.30;;;;;;4142326;28;20568;-81
2021/03/30 06:50:51;;;;;;;18.27;10.70;;;11.80;98.30;;;;;;4140105;28;20486;-80
2021/03/30 06:52:54;;;;;;;18.90;10.13;;;11.90;98.30;;;;;;4140132;28;20500;-81
2021/03/30 06:55:03;;;;;;;20.20;11.43;;;11.90;98.30;;;;;;4142506;28;20530;-81
2021/03/30 06:57:05;;;;;;;19.50;11.07;;;11.80;98.30;;;;;;4146969;28;20502;-82
2021/03/30 06:59:08;;;;;;;21.33;12.03;;;11.90;98.30;;;;;;4140935;28;20524;-81
2021/03/30 07:01:10;;;;;;;18.13;10.80;;;12.00;98.30;;;;;;4147710;28;21209;-82
2021/03/30 07:03:15;;;;;;;16.40;11.27;;;12.00;98.30;;;;;;4147060;28;20576;-82
2021/03/30 07:05:25;;;;;;;16.33;10.63;;;12.10;98.30;;;;;;4146722;28;20955;-82
2021/03/30 07:07:28;;;;;;;18.47;11.03;;;12.10;98.30;;;;;;4145528;28;20596;-81
2021/03/30 07:09:30;;;;;;;18.57;12.20;;;12.20;98.30;;;;;;4148144;28;20478;-82
2021/03/30 07:11:33;;;;;;;20.33;11.53;;;12.30;98.30;;;;;;4148709;28;20494;-82
2021/03/30 07:13:35;;;;;;;22.00;11.60;;;12.40;98.30;;;;;;4150233;28;20486;-82
2021/03/30 07:15:38;;;;;;;17.27;11.50;;;12.40;98.30;;;;;;4150228;28;20556;-82
2021/03/30 07:17:43;;;;;;;46.50;27.10;;;12.40;98.30;;;;;;4149017;28;20502;-82
2021/03/30 07:19:45;;;;;;;18.23;12.43;;;12.50;98.30;;;;;;4149831;28;20483;-82
2021/03/30 07:21:53;;;;;;;20.50;12.20;;;12.70;98.30;;;;;;4150306;28;20513;-82
2021/03/30 07:23:57;;;;;;;22.60;12.10;;;12.90;98.30;;;;;;4149510;28;20486;-82
2021/03/30 07:26:01;;;;;;;18.67;11.40;;;12.90;98.30;;;;;;4148995;28;20525;-82
2021/03/30 07:28:08;;;;;;;19.37;10.47;;;12.90;98.30;;;;;;4147498;28;20486;-82
2021/03/30 07:30:13;;;;;;;18.43;11.20;;;12.90;98.30;;;;;;4150406;28;20528;-82
2021/03/30 07:32:21;;;;;;;18.67;11.87;;;12.90;98.30;;;;;;4150478;28;20494;-82
2021/03/30 07:34:29;;;;;;;16.57;11.57;;;13.00;98.30;;;;;;4151161;28;20489;-82
2021/03/30 07:36:37;;;;;;;17.57;11.00;;;13.10;98.30;;;;;;4148649;28;20557;-83
2021/03/30 07:38:52;;;;;;;13.73;11.53;;;13.10;98.30;;;;;;4147149;28;20872;-82
2021/03/30 07:40:54;;;;;;;18.30;10.70;;;13.10;98.30;;;;;;4150241;28;20532;-82
2021/03/30 07:42:57;;;;;;;15.97;11.40;;;13.10;98.30;;;;;;4148784;28;20557;-82
2021/03/30 07:44:59;;;;;;;16.47;12.37;;;13.20;98.30;;;;;;4152268;28;20490;-83
2021/03/30 07:47:01;;;;;;;18.93;11.77;;;13.30;98.30;;;;;;4149483;28;21088;-82
2021/03/30 07:49:05;;;;;;;22.77;12.90;;;13.50;98.30;;;;;;4148321;28;21509;-82
2021/03/30 07:51:09;;;;;;;19.17;12.43;;;13.60;98.30;;;;;;4147800;28;21003;-82
2021/03/30 07:53:39;;;;;;;18.53;13.00;;;13.80;98.30;;;;;;4148444;28;20570;-82
2021/03/30 07:55:41;;;;;;;20.40;12.13;;;13.80;98.30;;;;;;4146356;28;20481;-82
2021/03/30 07:58:05;;;;;;;18.30;10.00;;;14.00;98.30;;;;;;4148171;28;21110;-82
2021/03/30 08:00:08;;;;;;;21.63;12.27;;;14.10;98.30;;;;;;4147502;28;21007;-82
2021/03/30 08:02:12;;;;;;;23.50;10.70;;;14.10;98.30;;;;;;4147785;28;20492;-82
2021/03/30 08:04:25;;;;;;;18.37;11.07;;;14.20;98.30;;;;;;4147856;28;20496;-82
2021/03/30 08:06:28;;;;;;;16.27;11.47;;;14.30;98.30;;;;;;4148191;28;21018;-82
2021/03/30 08:08:48;;;;;;;20.83;12.30;;;14.30;98.30;;;;;;4147896;28;20566;-82
2021/03/30 08:10:52;;;;;;;15.57;11.00;;;14.30;98.30;;;;;;4146046;28;20490;-82
2021/03/30 08:13:25;;;;;;;17.43;11.27;;;14.40;98.30;;;;;;4145497;28;20502;-82
2021/03/30 08:15:44;;;;;;;16.57;10.60;;;14.50;98.30;;;;;;4146952;28;21045;-82
2021/03/30 08:17:46;;;;;;;14.83;10.33;;;14.60;98.30;;;;;;4153206;28;20529;-82
2021/03/30 08:20:01;;;;;;;17.40;12.53;;;14.60;98.30;;;;;;4154832;28;20498;-83
2021/03/30 08:22:05;;;;;;;21.93;12.77;;;14.70;98.30;;;;;;4158860;28;20899;-83
2021/03/30 08:24:09;;;;;;;16.57;11.97;;;14.70;98.30;;;;;;4153451;28;20482;-82
2021/03/30 08:26:19;;;;;;;14.77;10.80;;;14.90;98.30;;;;;;4154417;28;20482;-82
2021/03/30 08:28:55;;;;;;;21.87;13.33;;;15.00;98.30;;;;;;4152536;28;20489;-83
2021/03/30 08:30:58;;;;;;;18.77;10.33;;;15.00;98.30;;;;;;4151915;28;20539;-82
2021/03/30 08:33:00;;;;;;;15.30;11.07;;;15.10;98.30;;;;;;4148573;28;20490;-82
2021/03/30 08:35:11;;;;;;;25.60;14.90;;;15.10;98.30;;;;;;4150028;28;20494;-82
2021/03/30 08:37:15;;;;;;;15.43;10.60;;;15.30;98.30;;;;;;4149846;28;20532;-82
2021/03/30 08:39:32;;;;;;;17.00;10.90;;;15.30;98.30;;;;;;4149356;28;20521;-84
2021/03/30 08:41:58;;;;;;;17.73;11.17;;;15.40;98.30;;;;;;4149829;28;20596;-82
2021/03/30 08:44:10;;;;;;;29.03;21.10;;;15.60;98.30;;;;;;4147758;28;20568;-82
2021/03/30 08:46:13;;;;;;;15.93;11.83;;;15.40;98.30;;;;;;4148659;28;20517;-82
2021/03/30 08:48:15;;;;;;;15.77;10.80;;;15.30;98.30;;;;;;4149592;28;20481;-82
2021/03/30 08:50:24;;;;;;;16.90;10.83;;;15.20;98.30;;;;;;4149061;28;20490;-82
2021/03/30 08:52:30;;;;;;;19.43;11.40;;;15.30;98.30;;;;;;4154309;28;20494;-82
2021/03/30 08:54:35;;;;;;;12.77;10.90;;;15.50;98.30;;;;;;4148340;28;20507;-82
2021/03/30 08:56:38;;;;;;;18.20;11.13;;;15.80;98.30;;;;;;4148441;28;21168;-82
2021/03/30 08:58:47;;;;;;;18.50;10.07;;;15.90;98.30;;;;;;4148083;28;20501;-82
2021/03/30 09:00:50;;;;;;;16.30;11.00;;;15.90;98.30;;;;;;4148774;28;20496;-83
2021/03/30 09:02:59;;;;;;;16.33;10.30;;;16.00;98.30;;;;;;4149728;28;20541;-83
2021/03/30 09:05:02;;;;;;;17.67;10.23;;;16.10;98.30;;;;;;4149411;28;21002;-83
2021/03/30 09:07:05;;;;;;;19.13;11.23;;;16.10;98.30;;;;;;4148385;28;20490;-82
2021/03/30 09:09:20;;;;;;;20.33;10.70;;;16.10;98.30;;;;;;4147276;28;20500;-82
2021/03/30 09:11:23;;;;;;;17.00;11.70;;;16.20;98.30;;;;;;4147773;28;21029;-83
2021/03/30 09:13:25;;;;;;;21.77;13.07;;;16.60;98.30;;;;;;4149435;28;20586;-83
2021/03/30 09:15:28;;;;;;;16.80;12.97;;;16.70;98.30;;;;;;4149184;28;20869;-83
2021/03/30 09:17:30;;;;;;;15.10;10.27;;;16.90;98.30;;;;;;4148070;28;20577;-82
2021/03/30 09:19:43;;;;;;;15.03;10.60;;;17.00;98.30;;;;;;4148710;28;20490;-82
2021/03/30 09:21:47;;;;;;;14.80;10.67;;;17.00;98.30;;;;;;4152473;28;20576;-82
2021/03/30 09:23:54;;;;;;;17.80;10.13;;;17.20;98.30;;;;;;4150050;28;20490;-83
2021/03/30 09:25:58;;;;;;;15.90;10.30;;;17.30;98.30;;;;;;4150700;28;20548;-82
2021/03/30 09:28:01;;;;;;;13.37;10.00;;;17.40;98.30;;;;;;4150520;28;21007;-83
2021/03/30 09:30:06;;;;;;;15.30;11.13;;;17.60;98.30;;;;;;4150332;28;21036;-82
2021/03/30 09:32:09;;;;;;;15.07;10.80;;;17.70;98.30;;;;;;4147401;28;20485;-82
2021/03/30 09:34:12;;;;;;;15.10;11.67;;;17.80;98.30;;;;;;4147722;28;20987;-82
2021/03/30 09:36:14;;;;;;;11.57;9.23;;;17.90;98.30;;;;;;4147828;28;20862;-83
2021/03/30 09:38:16;;;;;;;13.60;9.53;;;18.20;97.90;;;;;;4133887;28;20585;-83
2021/03/30 09:40:22;;;;;;;14.00;10.20;;;17.90;97.80;;;;;;4146672;28;20504;-83
2021/03/30 09:42:25;;;;;;;14.03;9.43;;;17.90;98.30;;;;;;4147710;28;20493;-82
2021/03/30 09:44:32;;;;;;;13.23;9.47;;;17.80;98.30;;;;;;4147723;28;20478;-82
2021/03/30 09:46:39;;;;;;;16.40;10.77;;;17.80;98.30;;;;;;4147397;28;20502;-83
2021/03/30 09:48:41;;;;;;;12.23;9.33;;;17.90;98.30;;;;;;4147126;28;20486;-83
2021/03/30 09:50:45;;;;;;;12.93;8.70;;;18.00;98.10;;;;;;4148133;28;20979;-82
2021/03/30 09:52:48;;;;;;;12.17;8.23;;;17.70;98.30;;;;;;4148700;28;20914;-82
2021/03/30 09:54:50;;;;;;;13.40;9.10;;;17.80;98.30;;;;;;4148467;28;21002;-82
2021/03/30 09:57:04;;;;;;;12.03;9.33;;;18.10;97.80;;;;;;4150155;28;20488;-82
2021/03/30 09:59:05;;;;;;;13.80;9.53;;;18.00;97.70;;;;;;4147322;28;20489;-82
2021/03/30 10:01:07;;;;;;;11.33;9.10;;;18.20;98.10;;;;;;4150098;28;20492;-83
2021/03/30 10:03:11;;;;;;;14.10;10.40;;;18.50;97.00;;;;;;4149522;28;20490;-82
2021/03/30 10:05:13;;;;;;;12.77;9.20;;;18.30;96.90;;;;;;4149525;28;21007;-83
2021/03/30 10:07:17;;;;;;;13.63;8.73;;;18.20;97.60;;;;;;4149129;28;20496;-83
2021/03/30 10:09:19;;;;;;;13.00;9.50;;;18.60;97.50;;;;;;4150402;28;20596;-83
2021/03/30 10:11:27;;;;;;;11.40;8.87;;;18.70;96.00;;;;;;4149039;28;20498;-83
2021/03/30 10:13:32;;;;;;;14.60;9.30;;;18.70;96.80;;;;;;4149238;28;20494;-83
2021/03/30 10:15:36;;;;;;;13.70;9.00;;;19.00;96.10;;;;;;4148862;28;20865;-82
2021/03/30 10:17:39;;;;;;;13.30;8.70;;;19.40;95.70;;;;;;4147125;28;20504;-82
2021/03/30 10:19:47;;;;;;;14.53;9.90;;;19.70;94.00;;;;;;4147786;28;20498;-83
2021/03/30 10:21:53;;;;;;;14.90;12.50;;;19.50;94.20;;;;;;4153213;28;20488;-83
2021/03/30 10:23:55;;;;;;;12.67;9.53;;;19.40;94.40;;;;;;4148785;28;20525;-83
2021/03/30 10:26:09;;;;;;;12.80;9.20;;;19.30;95.00;;;;;;4148186;28;20500;-82
2021/03/30 10:28:11;;;;;;;10.30;8.80;;;19.50;94.20;;;;;;4147498;28;20492;-83
2021/03/30 10:30:16;;;;;;;12.97;8.60;;;19.70;94.40;;;;;;4147714;28;21415;-83
2021/03/30 10:32:18;;;;;;;12.10;9.97;;;19.50;94.50;;;;;;4147527;28;20565;-82
2021/03/30 10:34:22;;;;;;;14.10;9.33;;;19.40;94.30;;;;;;4147718;28;20564;-82
2021/03/30 10:36:25;;;;;;;10.90;9.30;;;19.40;94.50;;;;;;4131540;28;20491;-83
2021/03/30 10:38:27;;;;;;;11.90;8.67;;;19.60;94.60;;;;;;4147472;28;20528;-83
2021/03/30 10:40:32;;;;;;;10.33;8.20;;;20.00;94.00;;;;;;4147084;28;20498;-83